Latest Weather Observations for Little Bay

IDN60801

Issued at 6:22 pm EST Friday 1 July 2022 (issued every 10 minutes, with the page automatically refreshed every 10 minutes)

About weather observations | Map of weather stations | Latest weather observations for NSW | Other Formats
Station Details ID: 066051 Name: LITTLE BAY (THE COAST GOLF CLUB) Lat: -33.98 Lon: 151.25 Height: 22.0 m
Data from the previous 72 hours. | See also: Recent months at Little Bay
Date/Time
EST
Temp
°C
App
Temp
°C
Dew
Point
°C
Rel
Hum
%
Delta-T
°C
Wind Press
QNH
hPa
Press
MSL
hPa
Rain since
9am
mm
Dir  Spd
km/h
Gust
km/h
Spd
kts
Gust
kts
01/06:00pm - - - - - W 9 13 5 7 - - -
01/05:30pm - - - - - W 11 13 6 7 - - -
01/05:00pm - - - - - W 11 15 6 8 - - -
01/04:30pm - - - - - W 9 15 5 8 - - -
01/04:00pm - - - - - W 9 13 5 7 - - -
01/03:30pm - - - - - WSW 9 15 5 8 - - -
01/03:00pm - - - - - W 11 17 6 9 - - -
01/02:30pm - - - - - W 11 15 6 8 - - -
01/02:00pm - - - - - WNW 11 17 6 9 - - -
01/01:30pm - - - - - WNW 11 17 6 9 - - -
01/01:00pm - - - - - W 9 15 5 8 - - -
01/12:30pm - - - - - WSW 11 19 6 10 - - -
01/12:00pm - - - - - SW 13 24 7 13 - - -
01/11:30am - - - - - SSW 17 26 9 14 - - -
01/11:00am - - - - - SSW 20 33 11 18 - - -
01/10:30am - - - - - SW 17 22 9 12 - - -
01/10:00am - - - - - SSW 15 28 8 15 - - -
01/09:30am - - - - - SSW 17 26 9 14 - - -
01/09:00am - - - - - SW 11 17 6 9 - - -
01/08:30am - - - - - S 17 22 9 12 - - -
01/08:00am - - - - - SSW 17 24 9 13 - - -
01/07:30am - - - - - S 19 28 10 15 - - -
01/07:00am - - - - - SSW 17 26 9 14 - - -
01/06:30am - - - - - SW 11 17 6 9 - - -
01/06:00am - - - - - SW 17 24 9 13 - - -
01/05:30am - - - - - SW 17 26 9 14 - - -
01/05:00am - - - - - SW 11 19 6 10 - - -
01/04:30am - - - - - SW 11 20 6 11 - - -
01/04:00am - - - - - S 22 33 12 18 - - -
01/03:30am - - - - - SSW 20 32 11 17 - - -
01/03:00am - - - - - WSW 7 20 4 11 - - -
01/02:30am - - - - - SSW 17 28 9 15 - - -
01/02:00am - - - - - S 19 26 10 14 - - -
01/01:30am - - - - - S 15 20 8 11 - - -
01/01:00am - - - - - S 17 24 9 13 - - -
01/12:30am - - - - - S 17 24 9 13 - - -
01/12:00am - - - - - SSE 20 24 11 13 - - -
 
Date/Time
EST
Temp
°C
App
Temp
°C
Dew
Point
°C
Rel
Hum
%
Delta-T
°C
Wind Press
QNH
hPa
Press
MSL
hPa
Rain since
9am
mm
Dir  Spd
km/h
Gust
km/h
Spd
kts
Gust
kts
30/11:30pm - - - - - SSW 15 22 8 12 - - -
30/11:00pm - - - - - SW 15 22 8 12 - - -
30/10:30pm - - - - - SSW 15 20 8 11 - - -
30/10:00pm - - - - - SW 15 22 8 12 - - -
30/09:30pm - - - - - SW 15 22 8 12 - - -
30/09:00pm - - - - - SSW 13 19 7 10 - - -
30/08:30pm - - - - - SSW 13 17 7 9 - - -
30/08:00pm - - - - - S 13 19 7 10 - - -
30/07:30pm - - - - - S 15 22 8 12 - - -
30/07:00pm - - - - - S 13 19 7 10 - - -
30/06:30pm - - - - - S 15 20 8 11 - - -
30/06:00pm - - - - - S 15 20 8 11 - - -
30/05:30pm - - - - - SSW 13 22 7 12 - - -
30/05:00pm - - - - - S 15 22 8 12 - - -
30/04:30pm - - - - - S 15 20 8 11 - - -
30/04:00pm - - - - - S 13 19 7 10 - - -
30/03:30pm - - - - - SSW 15 20 8 11 - - -
30/03:00pm - - - - - SSW 11 19 6 10 - - -
30/02:30pm - - - - - SSW 11 17 6 9 - - -
30/02:00pm - - - - - SSW 11 17 6 9 - - -
30/01:30pm - - - - - S 13 19 7 10 - - -
30/01:00pm - - - - - S 11 15 6 8 - - -
30/12:30pm - - - - - SW 6 11 3 6 - - -
30/12:00pm - - - - - W 7 15 4 8 - - -
30/11:30am - - - - - WSW 9 13 5 7 - - -
30/11:00am - - - - - W 11 17 6 9 - - -
30/10:30am - - - - - W 13 19 7 10 - - -
30/10:00am - - - - - W 13 20 7 11 - - -
30/09:30am - - - - - W 13 19 7 10 - - -
30/09:00am - - - - - W 9 15 5 8 - - -
30/08:30am - - - - - WNW 6 9 3 5 - - -
30/08:00am - - - - - WNW 6 9 3 5 - - -
30/07:30am - - - - - WNW 7 11 4 6 - - -
30/07:00am - - - - - WNW 9 17 5 9 - - -
30/06:30am - - - - - WNW 6 9 3 5 - - -
30/06:00am - - - - - NW 7 11 4 6 - - -
30/05:30am - - - - - W 9 13 5 7 - - -
30/05:00am - - - - - W 7 11 4 6 - - -
30/04:30am - - - - - W 6 9 3 5 - - -
30/04:00am - - - - - NW 9 15 5 8 - - -
30/03:30am - - - - - NNW 11 17 6 9 - - -
30/03:00am - - - - - NW 11 19 6 10 - - -
30/02:30am - - - - - WNW 9 13 5 7 - - -
30/02:00am - - - - - WNW 7 11 4 6 - - -
30/01:30am - - - - - W 6 9 3 5 - - -
30/01:00am - - - - - W 6 11 3 6 - - -
30/12:30am - - - - - WNW 7 11 4 6 - - -
30/12:00am - - - - - WNW 6 9 3 5 - - -
 
Date/Time
EST
Temp
°C
App
Temp
°C
Dew
Point
°C
Rel
Hum
%
Delta-T
°C
Wind Press
QNH
hPa
Press
MSL
hPa
Rain since
9am
mm
Dir  Spd
km/h
Gust
km/h
Spd
kts
Gust
kts
29/11:30pm - - - - - WNW 7 13 4 7 - - -
29/11:00pm - - - - - WNW 9 17 5 9 - - -
29/10:30pm - - - - - WNW 9 15 5 8 - - -
29/10:00pm - - - - - WNW 9 15 5 8 - - -
29/09:30pm - - - - - WNW 9 11 5 6 - - -
29/09:00pm - - - - - WNW 7 13 4 7 - - -
29/08:30pm - - - - - WNW 7 9 4 5 - - -
29/08:00pm - - - - - NNW 7 11 4 6 - - -
29/07:30pm - - - - - N 7 13 4 7 - - -
29/07:00pm - - - - - N 7 11 4 6 - - -
29/06:30pm - - - - - N 7 13 4 7 - - -
29/06:00pm - - - - - NNW 7 9 4 5 - - -
29/05:30pm - - - - - NNW 7 11 4 6 - - -
29/05:00pm - - - - - NNW 6 9 3 5 - - -
29/04:30pm - - - - - N 7 13 4 7 - - -
29/04:00pm - - - - - N 9 15 5 8 - - -
29/03:30pm - - - - - N 9 15 5 8 - - -
29/03:00pm - - - - - N 11 20 6 11 - - -
29/02:30pm - - - - - N 17 26 9 14 - - -
29/02:00pm - - - - - N 17 24 9 13 - - -
29/01:30pm - - - - - N 13 22 7 12 - - -
29/01:00pm - - - - - N 13 24 7 13 - - -
29/12:30pm - - - - - NNW 11 19 6 10 - - -
29/12:00pm - - - - - NNW 9 15 5 8 - - -
29/11:30am - - - - - W 13 19 7 10 - - -
29/11:00am - - - - - WNW 11 19 6 10 - - -
29/10:30am - - - - - WNW 13 20 7 11 - - -
29/10:00am - - - - - W 15 20 8 11 - - -
29/09:30am - - - - - W 15 19 8 10 - - -
29/09:00am - - - - - W 13 17 7 9 - - -
29/08:30am - - - - - WNW 15 19 8 10 - - -
29/08:00am - - - - - WNW 13 19 7 10 - - -
29/07:30am - - - - - WNW 13 17 7 9 - - -
29/07:00am - - - - - WNW 13 17 7 9 - - -
29/06:30am - - - - - WNW 13 17 7 9 - - -
29/06:00am - - - - - WNW 11 15 6 8 - - -
29/05:30am - - - - - WNW 11 15 6 8 - - -
29/05:00am - - - - - WNW 11 17 6 9 - - -
29/04:30am - - - - - WNW 11 15 6 8 - - -
29/04:00am - - - - - WNW 11 17 6 9 - - -
29/03:30am - - - - - WNW 11 15 6 8 - - -
29/03:00am - - - - - WNW 13 17 7 9 - - -
29/02:30am - - - - - WNW 13 19 7 10 - - -
29/02:00am - - - - - WNW 13 17 7 9 - - -
29/01:30am - - - - - WNW 13 19 7 10 - - -
29/01:00am - - - - - WNW 11 17 6 9 - - -
29/12:30am - - - - - WNW 9 13 5 7 - - -
29/12:00am - - - - - WNW 9 15 5 8 - - -
 
Date/Time
EST
Temp
°C
App
Temp
°C
Dew
Point
°C
Rel
Hum
%
Delta-T
°C
Wind Press
QNH
hPa
Press
MSL
hPa
Rain since
9am
mm
Dir  Spd
km/h
Gust
km/h
Spd
kts
Gust
kts
28/11:30pm - - - - - WNW 11 17 6 9 - - -
28/11:00pm - - - - - W 11 15 6 8 - - -
28/10:30pm - - - - - W 11 13 6 7 - - -
28/10:00pm - - - - - W 9 13 5 7 - - -
28/09:30pm - - - - - WSW 11 17 6 9 - - -
28/09:00pm - - - - - WSW 15 20 8 11 - - -
28/08:30pm - - - - - SW 11 15 6 8 - - -
28/08:00pm - - - - - SW 11 17 6 9 - - -
28/07:30pm - - - - - WSW 11 20 6 11 - - -
28/07:00pm - - - - - SW 11 19 6 10 - - -
28/06:30pm - - - - - SW 17 28 9 15 - - -

Other formats

Comma delimited format used in spreadsheet applications
http://www.bom.gov.au/fwo/IDN60801/IDN60801.94780.axf

JavaScript Object Notation format (JSON) in row-major order
http://www.bom.gov.au/fwo/IDN60801/IDN60801.94780.json

Data quality

Most of these data are generated automatically and are frequently updated. Quality checks on data are not normally performed. It is possible for incorrect values to appear. Refer to information at About Latest Weather Observations and please check the disclaimer before using these data.